PAL422 RPLL-RJTT
Flight info
| Callsign | PAL422 |
|---|---|
| Flight time | N/A |
| Altitude | 37000 |
| Route | JOM2R JOM G467 ENDAX DCT TILLY A339 KEITH DCT TOMOL/N0487F380 B586 IPRET/N0482F390 B586 SABRI Y873 FITTO Y87 TOPIT Y875 AROSA |
| Aircraft | B77W/H-SDE1E2E3FGHIJ2J3J4J5M1RWXY/LB1D1 |
Departure
| Time | 2026-05-07 05:35 |
|---|---|
| Airport | Ninoy Aquino International Airport (RPLL) |
Arrival
| Time | N/A |
|---|---|
| Airport | Tokyo Haneda International Airport (RJTT) |
| Time | Latitude | Longitude | Altitude | Speed | Heading |
|---|---|---|---|---|---|
| 2026-05-07 05:13 | 14.50357 | 121.00488 | 37 ft | 0 kts | 308° |
| 2026-05-07 05:27 | 14.50350 | 121.00498 | 63 ft | 2 kts | 308° |
| 2026-05-07 05:28 | 14.50339 | 121.00512 | 63 ft | 2 kts | 307° |
| 2026-05-07 05:28 | 14.50330 | 121.00526 | 63 ft | 2 kts | 302° |
| 2026-05-07 05:28 | 14.50322 | 121.00541 | 63 ft | 2 kts | 269° |
| 2026-05-07 05:28 | 14.50325 | 121.00553 | 63 ft | 1 kts | 241° |
| 2026-05-07 05:29 | 14.50326 | 121.00554 | 63 ft | 0 kts | 241° |
| 2026-05-07 05:31 | 14.50318 | 121.00540 | 63 ft | 4 kts | 240° |
| 2026-05-07 05:31 | 14.50296 | 121.00500 | 63 ft | 8 kts | 240° |
| 2026-05-07 05:31 | 14.50260 | 121.00435 | 70 ft | 12 kts | 240° |
| 2026-05-07 05:31 | 14.50215 | 121.00356 | 63 ft | 12 kts | 230° |
| 2026-05-07 05:32 | 14.50147 | 121.00335 | 71 ft | 11 kts | 195° |
| 2026-05-07 05:32 | 14.50089 | 121.00276 | 63 ft | 13 kts | 236° |
| 2026-05-07 05:32 | 14.50037 | 121.00183 | 64 ft | 13 kts | 240° |
| 2026-05-07 05:32 | 14.49990 | 121.00098 | 66 ft | 15 kts | 239° |
| 2026-05-07 05:33 | 14.49935 | 121.00001 | 63 ft | 8 kts | 238° |
| 2026-05-07 05:33 | 14.49884 | 120.99975 | 65 ft | 10 kts | 179° |
| 2026-05-07 05:33 | 14.49817 | 121.00007 | 63 ft | 12 kts | 129° |
| 2026-05-07 05:33 | 14.49826 | 121.00084 | 63 ft | 12 kts | 58° |
| 2026-05-07 05:34 | 14.49846 | 121.00117 | 65 ft | 2 kts | 61° |
| 2026-05-07 05:34 | 14.49846 | 121.00118 | 65 ft | 0 kts | 61° |
| 2026-05-07 05:34 | 14.49847 | 121.00119 | 65 ft | 0 kts | 61° |
| 2026-05-07 05:35 | 14.49856 | 121.00137 | 65 ft | 11 kts | 61° |
| 2026-05-07 05:35 | 14.50049 | 121.00483 | 63 ft | 105 kts | 60° |
| 2026-05-07 05:35 | 14.50563 | 121.01412 | 88 ft | 190 kts | 61° |
| 2026-05-07 05:35 | 14.51224 | 121.02623 | 1006 ft | 191 kts | 61° |
| 2026-05-07 05:36 | 14.51855 | 121.03854 | 2046 ft | 196 kts | 61° |
| 2026-05-07 05:36 | 14.52569 | 121.05135 | 2472 ft | 219 kts | 59° |
| 2026-05-07 05:36 | 14.53400 | 121.06591 | 2770 ft | 250 kts | 60° |
| 2026-05-07 05:36 | 14.54301 | 121.08183 | 3485 ft | 261 kts | 60° |
| 2026-05-07 05:37 | 14.55222 | 121.09822 | 4388 ft | 266 kts | 60° |
| 2026-05-07 05:37 | 14.56160 | 121.11496 | 5267 ft | 273 kts | 60° |
| 2026-05-07 05:37 | 14.57092 | 121.13218 | 6138 ft | 274 kts | 66° |
| 2026-05-07 05:37 | 14.57527 | 121.15140 | 6847 ft | 279 kts | 85° |
| 2026-05-07 05:38 | 14.57698 | 121.17155 | 7652 ft | 283 kts | 85° |
| 2026-05-07 05:38 | 14.57902 | 121.19186 | 8563 ft | 285 kts | 84° |
| 2026-05-07 05:38 | 14.58048 | 121.20536 | 9136 ft | 287 kts | 84° |
| 2026-05-07 05:38 | 14.58354 | 121.23277 | 10202 ft | 292 kts | 83° |
| 2026-05-07 05:39 | 14.58599 | 121.25412 | 10763 ft | 308 kts | 83° |
| 2026-05-07 05:39 | 14.58771 | 121.26914 | 10896 ft | 327 kts | 83° |
| 2026-05-07 05:39 | 14.59048 | 121.29373 | 11132 ft | 354 kts | 84° |
| 2026-05-07 05:39 | 14.59339 | 121.31949 | 11496 ft | 375 kts | 83° |
| 2026-05-07 05:40 | 14.59644 | 121.34661 | 12220 ft | 384 kts | 83° |
| 2026-05-07 05:40 | 14.59955 | 121.37426 | 13120 ft | 390 kts | 83° |
| 2026-05-07 05:40 | 14.60269 | 121.40224 | 14055 ft | 394 kts | 83° |
| 2026-05-07 05:40 | 14.60586 | 121.43047 | 14951 ft | 399 kts | 83° |
| 2026-05-07 05:41 | 14.60906 | 121.45912 | 15809 ft | 404 kts | 83° |
| 2026-05-07 05:41 | 14.61231 | 121.48809 | 16630 ft | 409 kts | 83° |
| 2026-05-07 05:41 | 14.61560 | 121.51756 | 17432 ft | 414 kts | 83° |
| 2026-05-07 05:41 | 14.61893 | 121.54728 | 18214 ft | 419 kts | 83° |
| 2026-05-07 05:42 | 14.62228 | 121.57731 | 18965 ft | 424 kts | 83° |
| 2026-05-07 05:42 | 14.62567 | 121.60771 | 19708 ft | 428 kts | 83° |
| 2026-05-07 05:42 | 14.62910 | 121.63848 | 20418 ft | 433 kts | 84° |
| 2026-05-07 05:42 | 14.63256 | 121.66957 | 21111 ft | 438 kts | 84° |
| 2026-05-07 05:43 | 14.63604 | 121.70091 | 21775 ft | 442 kts | 84° |
| 2026-05-07 05:43 | 14.63955 | 121.73254 | 22420 ft | 446 kts | 84° |
| 2026-05-07 05:43 | 14.64310 | 121.76458 | 23040 ft | 451 kts | 84° |
| 2026-05-07 05:43 | 14.64667 | 121.79692 | 23637 ft | 455 kts | 84° |
| 2026-05-07 05:44 | 14.65027 | 121.82949 | 24217 ft | 459 kts | 84° |
| 2026-05-07 05:44 | 14.65390 | 121.86237 | 24791 ft | 463 kts | 84° |
| 2026-05-07 05:44 | 14.65756 | 121.89557 | 25335 ft | 467 kts | 84° |
| 2026-05-07 05:44 | 14.66124 | 121.92895 | 25865 ft | 470 kts | 84° |
| 2026-05-07 05:45 | 14.66490 | 121.96228 | 26361 ft | 474 kts | 84° |
| 2026-05-07 05:45 | 14.66863 | 121.99626 | 26851 ft | 478 kts | 84° |
| 2026-05-07 05:45 | 14.67238 | 122.03045 | 27321 ft | 481 kts | 84° |
| 2026-05-07 05:45 | 14.67615 | 122.06488 | 27768 ft | 484 kts | 84° |
| 2026-05-07 05:46 | 14.67994 | 122.09957 | 28201 ft | 487 kts | 84° |
| 2026-05-07 05:46 | 14.68376 | 122.13453 | 28612 ft | 491 kts | 84° |
| 2026-05-07 05:46 | 14.68759 | 122.16964 | 29000 ft | 493 kts | 84° |
| 2026-05-07 05:46 | 14.69143 | 122.20496 | 29365 ft | 496 kts | 84° |
| 2026-05-07 05:47 | 14.69529 | 122.24046 | 29711 ft | 499 kts | 84° |
| 2026-05-07 05:47 | 14.69917 | 122.27617 | 30063 ft | 500 kts | 84° |
| 2026-05-07 05:47 | 14.70304 | 122.31183 | 30503 ft | 500 kts | 84° |
| 2026-05-07 05:47 | 14.70608 | 122.34747 | 30983 ft | 497 kts | 88° |
| 2026-05-07 05:48 | 14.70611 | 122.38316 | 31432 ft | 496 kts | 92° |
| 2026-05-07 05:48 | 14.70433 | 122.41870 | 31833 ft | 495 kts | 94° |
| 2026-05-07 05:48 | 14.70187 | 122.45415 | 32239 ft | 495 kts | 94° |
| 2026-05-07 05:48 | 14.69937 | 122.48953 | 32639 ft | 494 kts | 94° |
| 2026-05-07 05:49 | 14.69712 | 122.52444 | 33014 ft | 493 kts | 94° |
| 2026-05-07 05:49 | 14.69513 | 122.55984 | 33383 ft | 492 kts | 93° |
| 2026-05-07 05:49 | 14.69338 | 122.59512 | 33746 ft | 491 kts | 93° |
| 2026-05-07 05:49 | 14.69177 | 122.63031 | 34093 ft | 491 kts | 93° |
| 2026-05-07 05:50 | 14.69024 | 122.66548 | 34430 ft | 490 kts | 92° |
| 2026-05-07 05:50 | 14.68873 | 122.70064 | 34766 ft | 489 kts | 92° |
| 2026-05-07 05:50 | 14.68722 | 122.73575 | 35085 ft | 489 kts | 92° |
| 2026-05-07 05:50 | 14.68568 | 122.77085 | 35393 ft | 488 kts | 93° |
| 2026-05-07 05:51 | 14.68414 | 122.80580 | 35693 ft | 487 kts | 93° |
| 2026-05-07 05:51 | 14.68258 | 122.84070 | 35981 ft | 487 kts | 93° |
| 2026-05-07 05:51 | 14.68101 | 122.87565 | 36255 ft | 486 kts | 93° |
| 2026-05-07 05:51 | 14.67943 | 122.91055 | 36498 ft | 486 kts | 93° |
| 2026-05-07 05:52 | 14.67784 | 122.94548 | 36721 ft | 487 kts | 93° |
| 2026-05-07 05:52 | 14.67627 | 122.97996 | 36898 ft | 488 kts | 93° |
| 2026-05-07 05:52 | 14.67466 | 123.01510 | 36951 ft | 491 kts | 93° |
| 2026-05-07 05:53 | 14.67144 | 123.08539 | 36990 ft | 488 kts | 93° |
| 2026-05-07 05:53 | 14.66822 | 123.15502 | 36996 ft | 483 kts | 93° |
| 2026-05-07 05:54 | 14.66500 | 123.22425 | 37001 ft | 482 kts | 93° |
| 2026-05-07 05:54 | 14.66177 | 123.29335 | 37002 ft | 482 kts | 93° |
| 2026-05-07 05:55 | 14.65851 | 123.36255 | 37003 ft | 482 kts | 93° |
| 2026-05-07 05:55 | 14.65523 | 123.43191 | 37003 ft | 484 kts | 93° |
| 2026-05-07 05:56 | 14.65194 | 123.50091 | 37003 ft | 485 kts | 93° |
| 2026-05-07 05:56 | 14.64860 | 123.57055 | 37002 ft | 486 kts | 93° |
| 2026-05-07 05:57 | 14.64523 | 123.64033 | 37002 ft | 487 kts | 93° |
| 2026-05-07 05:57 | 14.64184 | 123.71013 | 37001 ft | 487 kts | 93° |
| 2026-05-07 05:58 | 14.63842 | 123.78000 | 37001 ft | 487 kts | 93° |
| 2026-05-07 05:58 | 14.63499 | 123.84986 | 37001 ft | 487 kts | 93° |
| 2026-05-07 05:59 | 14.63154 | 123.91968 | 37001 ft | 487 kts | 93° |
| 2026-05-07 05:59 | 14.62806 | 123.98941 | 37001 ft | 486 kts | 93° |
| 2026-05-07 06:00 | 14.62458 | 124.05910 | 37001 ft | 486 kts | 93° |
| 2026-05-07 06:00 | 14.62107 | 124.12872 | 37001 ft | 485 kts | 93° |
| 2026-05-07 06:01 | 14.61756 | 124.19790 | 37001 ft | 485 kts | 93° |
| 2026-05-07 06:01 | 14.61401 | 124.26759 | 37001 ft | 485 kts | 93° |
| 2026-05-07 06:02 | 14.61045 | 124.33718 | 37001 ft | 485 kts | 93° |
| 2026-05-07 06:02 | 14.60686 | 124.40674 | 37002 ft | 485 kts | 93° |
| 2026-05-07 06:03 | 14.60328 | 124.47580 | 37002 ft | 485 kts | 93° |
| 2026-05-07 06:03 | 14.59965 | 124.54534 | 37002 ft | 485 kts | 93° |
| 2026-05-07 06:04 | 14.59600 | 124.61494 | 37002 ft | 485 kts | 93° |
| 2026-05-07 06:04 | 14.59233 | 124.68454 | 37002 ft | 486 kts | 93° |
| 2026-05-07 06:05 | 14.58864 | 124.75417 | 37002 ft | 486 kts | 93° |
| 2026-05-07 06:05 | 14.58492 | 124.82381 | 37002 ft | 486 kts | 93° |
| 2026-05-07 06:06 | 14.58118 | 124.89359 | 37002 ft | 486 kts | 93° |
| 2026-05-07 06:06 | 14.57741 | 124.96338 | 37002 ft | 486 kts | 93° |
| 2026-05-07 06:07 | 14.57363 | 125.03308 | 37002 ft | 487 kts | 93° |
| 2026-05-07 06:07 | 14.56983 | 125.10287 | 37002 ft | 487 kts | 93° |
| 2026-05-07 06:08 | 14.56602 | 125.17225 | 37002 ft | 487 kts | 93° |
| 2026-05-07 06:08 | 14.56217 | 125.24213 | 37002 ft | 487 kts | 93° |
| 2026-05-07 06:09 | 14.55830 | 125.31202 | 37001 ft | 487 kts | 94° |
| 2026-05-07 06:09 | 14.55441 | 125.38185 | 37001 ft | 487 kts | 94° |
| 2026-05-07 06:10 | 14.55050 | 125.45165 | 37001 ft | 487 kts | 94° |
| 2026-05-07 06:10 | 14.54657 | 125.52143 | 37001 ft | 487 kts | 94° |
| 2026-05-07 06:11 | 14.54264 | 125.59079 | 37001 ft | 487 kts | 94° |
| 2026-05-07 06:11 | 14.53866 | 125.66063 | 37001 ft | 487 kts | 94° |
| 2026-05-07 06:12 | 14.53467 | 125.73043 | 37001 ft | 487 kts | 94° |
| 2026-05-07 06:12 | 14.53066 | 125.80019 | 37001 ft | 487 kts | 94° |
| 2026-05-07 06:13 | 14.52662 | 125.87004 | 37001 ft | 487 kts | 94° |
| 2026-05-07 06:13 | 14.52257 | 125.93978 | 37001 ft | 487 kts | 94° |
| 2026-05-07 06:14 | 14.51850 | 126.00957 | 37001 ft | 487 kts | 94° |
| 2026-05-07 06:14 | 14.51441 | 126.07884 | 37001 ft | 487 kts | 94° |
| 2026-05-07 06:15 | 14.51027 | 126.14861 | 37001 ft | 487 kts | 94° |
| 2026-05-07 06:15 | 14.50611 | 126.21837 | 37001 ft | 487 kts | 94° |
| 2026-05-07 06:16 | 14.50194 | 126.28810 | 37001 ft | 487 kts | 94° |
| 2026-05-07 06:16 | 14.49774 | 126.35793 | 37001 ft | 487 kts | 94° |
| 2026-05-07 06:17 | 14.49353 | 126.42767 | 37001 ft | 487 kts | 94° |
| 2026-05-07 06:17 | 14.48929 | 126.49744 | 37001 ft | 487 kts | 94° |
| 2026-05-07 06:18 | 14.48503 | 126.56718 | 37001 ft | 487 kts | 94° |
| 2026-05-07 06:18 | 14.48075 | 126.63693 | 37001 ft | 487 kts | 94° |
| 2026-05-07 06:19 | 14.47648 | 126.70630 | 37001 ft | 487 kts | 94° |
| 2026-05-07 06:19 | 14.47216 | 126.77605 | 37001 ft | 487 kts | 94° |
| 2026-05-07 06:20 | 14.46781 | 126.84588 | 37001 ft | 487 kts | 94° |
| 2026-05-07 06:20 | 14.46345 | 126.91570 | 37001 ft | 487 kts | 94° |
| 2026-05-07 06:21 | 14.45907 | 126.98543 | 37001 ft | 487 kts | 94° |
| 2026-05-07 06:21 | 14.45470 | 127.05472 | 37001 ft | 487 kts | 94° |
| 2026-05-07 06:22 | 14.45025 | 127.12489 | 37001 ft | 487 kts | 94° |
| 2026-05-07 06:22 | 14.44360 | 127.22914 | 37001 ft | 487 kts | 94° |
| 2026-05-07 06:23 | 14.43912 | 127.29892 | 37001 ft | 487 kts | 94° |
| 2026-05-07 06:23 | 14.43463 | 127.36870 | 37001 ft | 487 kts | 94° |
| 2026-05-07 06:24 | 14.43011 | 127.43840 | 37001 ft | 487 kts | 94° |
| 2026-05-07 06:24 | 14.42558 | 127.50813 | 37001 ft | 487 kts | 94° |
| 2026-05-07 06:25 | 14.42101 | 127.57799 | 37001 ft | 487 kts | 94° |
| 2026-05-07 06:25 | 14.41644 | 127.64769 | 37001 ft | 487 kts | 94° |
| 2026-05-07 06:26 | 14.41187 | 127.71695 | 37001 ft | 487 kts | 94° |
| 2026-05-07 06:26 | 14.40725 | 127.78671 | 37001 ft | 487 kts | 94° |
| 2026-05-07 06:27 | 14.40262 | 127.85644 | 37001 ft | 487 kts | 94° |
| 2026-05-07 06:27 | 14.39874 | 127.91444 | 37001 ft | 487 kts | 94° |
| 2026-05-07 06:28 | 14.39407 | 127.98411 | 37001 ft | 487 kts | 94° |
| 2026-05-07 06:28 | 14.38937 | 128.05385 | 37001 ft | 487 kts | 94° |
| 2026-05-07 06:29 | 14.38466 | 128.12358 | 37001 ft | 487 kts | 94° |
| 2026-05-07 06:29 | 14.37992 | 128.19332 | 37001 ft | 487 kts | 94° |
| 2026-05-07 06:30 | 14.37519 | 128.26264 | 37001 ft | 487 kts | 94° |
| 2026-05-07 06:30 | 14.37041 | 128.33236 | 37001 ft | 487 kts | 94° |
| 2026-05-07 06:31 | 14.36562 | 128.40199 | 37001 ft | 487 kts | 94° |
| 2026-05-07 06:31 | 14.36080 | 128.47166 | 37001 ft | 487 kts | 94° |
| 2026-05-07 06:32 | 14.35596 | 128.54141 | 37001 ft | 487 kts | 94° |
| 2026-05-07 06:32 | 14.35110 | 128.61107 | 37001 ft | 487 kts | 94° |
| 2026-05-07 06:33 | 14.34621 | 128.68092 | 37001 ft | 487 kts | 94° |
| 2026-05-07 06:33 | 14.34134 | 128.75021 | 37001 ft | 487 kts | 94° |
| 2026-05-07 06:34 | 14.33642 | 128.81987 | 37001 ft | 487 kts | 94° |
| 2026-05-07 06:34 | 14.33148 | 128.88959 | 37001 ft | 487 kts | 94° |
| 2026-05-07 06:35 | 14.32651 | 128.95938 | 37001 ft | 487 kts | 94° |
| 2026-05-07 06:35 | 14.32153 | 129.02909 | 37001 ft | 487 kts | 94° |
| 2026-05-07 06:36 | 14.31652 | 129.09879 | 37001 ft | 487 kts | 94° |
| 2026-05-07 06:36 | 14.31151 | 129.16844 | 37001 ft | 487 kts | 94° |
| 2026-05-07 06:37 | 14.30646 | 129.23815 | 37001 ft | 487 kts | 94° |
| 2026-05-07 06:37 | 14.30143 | 129.30737 | 37001 ft | 487 kts | 94° |
| 2026-05-07 06:38 | 14.29635 | 129.37708 | 37001 ft | 487 kts | 94° |
| 2026-05-07 06:38 | 14.29124 | 129.44679 | 37001 ft | 487 kts | 95° |
| 2026-05-07 06:39 | 14.28612 | 129.51642 | 37001 ft | 487 kts | 95° |
| 2026-05-07 06:39 | 14.28100 | 129.58573 | 37001 ft | 487 kts | 95° |
| 2026-05-07 06:40 | 14.27583 | 129.65545 | 37001 ft | 487 kts | 95° |
| 2026-05-07 06:40 | 14.27065 | 129.72508 | 37001 ft | 487 kts | 95° |
| 2026-05-07 06:41 | 14.26545 | 129.79473 | 37001 ft | 487 kts | 95° |
| 2026-05-07 06:41 | 14.26022 | 129.86441 | 37001 ft | 487 kts | 95° |
| 2026-05-07 06:42 | 14.25499 | 129.93403 | 37001 ft | 487 kts | 95° |
| 2026-05-07 06:42 | 14.25445 | 129.96882 | 36990 ft | 485 kts | 83° |
| 2026-05-07 06:42 | 14.26162 | 130.00271 | 37010 ft | 485 kts | 71° |
| 2026-05-07 06:43 | 14.27544 | 130.03439 | 37002 ft | 486 kts | 59° |
| 2026-05-07 06:43 | 14.29517 | 130.06246 | 37015 ft | 484 kts | 51° |
| 2026-05-07 06:43 | 14.33761 | 130.11655 | 37005 ft | 487 kts | 51° |
| 2026-05-07 06:44 | 14.38025 | 130.17108 | 37005 ft | 489 kts | 51° |
| 2026-05-07 06:44 | 14.42232 | 130.22584 | 37003 ft | 491 kts | 52° |
| 2026-05-07 06:45 | 14.46455 | 130.28131 | 37001 ft | 491 kts | 52° |
| 2026-05-07 06:45 | 14.50673 | 130.33684 | 37000 ft | 491 kts | 52° |
| 2026-05-07 06:46 | 14.54883 | 130.39227 | 37000 ft | 490 kts | 52° |
| 2026-05-07 06:46 | 14.59087 | 130.44763 | 37000 ft | 490 kts | 52° |
| 2026-05-07 06:47 | 14.63292 | 130.50301 | 37000 ft | 489 kts | 52° |
| 2026-05-07 06:47 | 14.67479 | 130.55821 | 37001 ft | 488 kts | 52° |
| 2026-05-07 06:48 | 14.71664 | 130.61341 | 37001 ft | 487 kts | 52° |
| 2026-05-07 06:48 | 14.75839 | 130.66854 | 37001 ft | 487 kts | 52° |
| 2026-05-07 06:49 | 14.80016 | 130.72371 | 37002 ft | 487 kts | 52° |
| 2026-05-07 06:49 | 14.84161 | 130.77851 | 37002 ft | 487 kts | 52° |
| 2026-05-07 06:50 | 14.88340 | 130.83380 | 37002 ft | 488 kts | 52° |
| 2026-05-07 06:50 | 14.92516 | 130.88907 | 37002 ft | 488 kts | 52° |
| 2026-05-07 06:51 | 14.96691 | 130.94439 | 37002 ft | 488 kts | 52° |
| 2026-05-07 06:51 | 15.00872 | 130.99982 | 37002 ft | 488 kts | 52° |
| 2026-05-07 06:52 | 15.05052 | 131.05527 | 37002 ft | 489 kts | 52° |
| 2026-05-07 06:52 | 15.09234 | 131.11079 | 37001 ft | 489 kts | 52° |
| 2026-05-07 06:53 | 15.13385 | 131.16594 | 37001 ft | 489 kts | 52° |
| 2026-05-07 06:53 | 15.17566 | 131.22153 | 37001 ft | 489 kts | 52° |
| 2026-05-07 06:54 | 15.21740 | 131.27706 | 37001 ft | 489 kts | 52° |
| 2026-05-07 06:54 | 15.25915 | 131.33266 | 37001 ft | 489 kts | 52° |
| 2026-05-07 06:55 | 15.30089 | 131.38826 | 37001 ft | 489 kts | 52° |
| 2026-05-07 06:55 | 15.34259 | 131.44387 | 37001 ft | 488 kts | 52° |
| 2026-05-07 06:56 | 15.38428 | 131.49950 | 37001 ft | 488 kts | 52° |
| 2026-05-07 06:56 | 15.42593 | 131.55512 | 37001 ft | 488 kts | 52° |
| 2026-05-07 06:57 | 15.46757 | 131.61076 | 37001 ft | 488 kts | 52° |
| 2026-05-07 06:57 | 15.50892 | 131.66605 | 37001 ft | 488 kts | 52° |
| 2026-05-07 06:58 | 15.55051 | 131.72171 | 37001 ft | 488 kts | 52° |
| 2026-05-07 06:58 | 15.59211 | 131.77742 | 37001 ft | 488 kts | 52° |
| 2026-05-07 06:59 | 15.63371 | 131.83318 | 37001 ft | 488 kts | 52° |
| 2026-05-07 06:59 | 15.67527 | 131.88892 | 37001 ft | 488 kts | 52° |
| 2026-05-07 07:00 | 15.71688 | 131.94477 | 37001 ft | 488 kts | 52° |
| 2026-05-07 07:00 | 15.75844 | 132.00060 | 37001 ft | 488 kts | 52° |
| 2026-05-07 07:01 | 15.79997 | 132.05643 | 37001 ft | 488 kts | 52° |
| 2026-05-07 07:01 | 15.84152 | 132.11233 | 37001 ft | 488 kts | 52° |
| 2026-05-07 07:02 | 15.88301 | 132.16819 | 37001 ft | 488 kts | 52° |
| 2026-05-07 07:02 | 15.92451 | 132.22410 | 37001 ft | 489 kts | 52° |
| 2026-05-07 07:03 | 15.96571 | 132.27966 | 37001 ft | 489 kts | 52° |
| 2026-05-07 07:03 | 16.00716 | 132.33558 | 37001 ft | 489 kts | 52° |
| 2026-05-07 07:04 | 16.04863 | 132.39159 | 37001 ft | 489 kts | 52° |
| 2026-05-07 07:04 | 16.09011 | 132.44765 | 37001 ft | 489 kts | 52° |
| 2026-05-07 07:05 | 16.13160 | 132.50376 | 37001 ft | 489 kts | 52° |
| 2026-05-07 07:05 | 16.17301 | 132.55981 | 37001 ft | 489 kts | 52° |
| 2026-05-07 07:06 | 16.21440 | 132.61588 | 37001 ft | 489 kts | 52° |
| 2026-05-07 07:06 | 16.25555 | 132.67166 | 37001 ft | 489 kts | 52° |
| 2026-05-07 07:07 | 16.29695 | 132.72782 | 37001 ft | 489 kts | 52° |
| 2026-05-07 07:07 | 16.33833 | 132.78401 | 37001 ft | 489 kts | 52° |
| 2026-05-07 07:08 | 16.37971 | 132.84024 | 37001 ft | 489 kts | 52° |
| 2026-05-07 07:08 | 16.42079 | 132.89610 | 37001 ft | 489 kts | 52° |
| 2026-05-07 07:09 | 16.46211 | 132.95234 | 37001 ft | 489 kts | 52° |
| 2026-05-07 07:09 | 16.50341 | 133.00858 | 37001 ft | 489 kts | 52° |
| 2026-05-07 07:10 | 16.54470 | 133.06487 | 37001 ft | 489 kts | 52° |
| 2026-05-07 07:10 | 16.58596 | 133.12115 | 37001 ft | 489 kts | 52° |
| 2026-05-07 07:11 | 16.62723 | 133.17749 | 37001 ft | 489 kts | 52° |
| 2026-05-07 07:11 | 16.66846 | 133.23384 | 37001 ft | 489 kts | 52° |
| 2026-05-07 07:12 | 16.70975 | 133.29029 | 37001 ft | 489 kts | 53° |
| 2026-05-07 07:12 | 16.75069 | 133.34632 | 37001 ft | 489 kts | 53° |
| 2026-05-07 07:13 | 16.79187 | 133.40272 | 37001 ft | 489 kts | 53° |
| 2026-05-07 07:13 | 16.83308 | 133.45922 | 37001 ft | 489 kts | 53° |
| 2026-05-07 07:14 | 16.87427 | 133.51573 | 37001 ft | 489 kts | 53° |
| 2026-05-07 07:14 | 16.91544 | 133.57225 | 37001 ft | 489 kts | 53° |
| 2026-05-07 07:15 | 16.95660 | 133.62882 | 37001 ft | 489 kts | 53° |
| 2026-05-07 07:15 | 16.99772 | 133.68537 | 37001 ft | 489 kts | 53° |
| 2026-05-07 07:16 | 17.03190 | 133.73242 | 37001 ft | 489 kts | 53° |
| 2026-05-07 07:16 | 17.07970 | 133.79826 | 37001 ft | 489 kts | 53° |
| 2026-05-07 07:17 | 17.11417 | 133.84579 | 37001 ft | 489 kts | 53° |
| 2026-05-07 07:17 | 17.15498 | 133.90210 | 37001 ft | 489 kts | 53° |
| 2026-05-07 07:18 | 17.20377 | 133.95064 | 37007 ft | 486 kts | 31° |